Rawlins, WY

8:42 PM MDT on August 29, 2014 (GMT -0600)
Downtown | Change Station
CLOSE
Current Station
Personal Weather Station
Location: Sinclair, Wy
Elevation: 6611 ft
Nearby Weather Stations

Elev 6611 ft 41.78 °N, 107.12 °W | Updated 9 seconds ago

Clear
Clear
62.9 °F
Feels Like 62.9 °F
N
0.0
Wind Variable Wind from NW
Gusts 0.0 mph

Today
High -- | Low -- °F
--% Chance of Precip.
Yesterday
High -- | Low -- °F
Precip. -- in
6:31 AM 7:47 PM
Waxing Crescent, 18% visible
Pressure 29.90 in
Visibility 10.0 miles
Clouds Clear
Dew Point 40 °F
Humidity 42%
Rainfall 0.00 in
Snow Depth Not available.
UV 0 out of 12
Pollen 8.80 out of 12
Air Quality Not available.
Flu Activity Not available.
METAR KRWL 300153Z AUTO 00000KT 10SM CLR 18/03 A3014 RMK AO2 SLP125 T01780033

More Conditions Fewer Conditions

Pressure 29.90 in
Visibility 10.0 miles
Clouds Clear
Dew Point 40 °F
Humidity 42%
Rainfall 0.00 in
Snow Depth Not available.
UV 0 out of 12
Pollen 8.80 out of 12
Air Quality Not available.
Flu Activity Not available.
METAR KRWL 300153Z AUTO 00000KT 10SM CLR 18/03 A3014 RMK AO2 SLP125 T01780033

More Conditions Fewer Conditions

10-Day Weather Forecast

Almanac

Astronomy

Aug. 29, 2014 Rise Set
Actual Time 6:31 AM MDT 7:47 PM MDT
Civil Twilight 6:02 AM MDT 8:15 PM MDT
Nautical Twilight 5:28 AM MDT 8:50 PM MDT
Astronomical Twilight 4:51 AM MDT 9:26 PM MDT
Moon 10:28 AM MDT (8/29) 9:42 PM MDT (8/29)
Length of Visible Light 14h 12m
Length of Day
13h 15m
Tomorrow will be 2m 40s shorter.
Waxing Crescent, 18% of the Moon is Illuminated
Today
Waxing Crescent
Sep 2
First Quarter
Sep 8
Full
Sep 15
Last Quarter
Sep 24
New

Today's Extremes

State Highs State Lows

Community

WunderPhotos

Upload Photos

1,748,421 photos uploaded!

Nearby

Snow Depth

Station Depth Elevation
Webber Springs 0 in 9250 ft
Old Battle 0 in 9920 ft
South Brush Creek 0 in 8440 ft
Brooklyn Lake 0 in 10220 ft
Cinnabar Park 0 in 9690 ft

Earthquake Activity

City Distance Mag. Time & Date
No recent earthquake activity has been reported nearby.
Minimum magnitude displayed is 2.5.

Coastal Water Temperatures

Place Temperature
No Stations Reporting

Nearby Weather Stations